Time;durP1;ratioP1;P1;durP2;ratioP2;P2;SDS_P1;SDS_P2;PMS_P1;PMS_P2;Temp;Humidity;BMP_temperature;BMP_pressure;BME280_temperature;BME280_humidity;BME280_pressure;Samples;Min_cycle;Max_cycle;Signal;HPM_P1;HPM_P2
2021/09/18 00:01:33;;;;;;;;;;;;;;;18.85;100.00;99016.69;5094171;28;19965;-62
2021/09/18 00:03:58;;;;;;;;;;;;;;;18.69;100.00;99016.81;5088894;28;19916;-63
2021/09/18 00:06:24;;;;;;;;;;;;;;;18.59;100.00;99015.75;5085731;28;19926;-63
2021/09/18 00:08:49;;;;;;;;;;;;;;;18.83;100.00;99020.31;5084396;28;19954;-63
2021/09/18 00:11:15;;;;;;;;;;;;;;;18.76;100.00;99018.09;5084136;28;19920;-63
2021/09/18 00:13:40;;;;;;;;;;;;;;;18.77;100.00;99013.72;5086352;28;20360;-60
2021/09/18 00:16:06;;;;;;;;;;;;;;;18.84;100.00;99011.56;5087068;28;20412;-61
2021/09/18 00:18:31;;;;;;;;;;;;;;;18.80;100.00;99009.16;5100809;28;19969;-63
2021/09/18 00:20:58;;;;;;;;;;;;;;;18.77;100.00;99026.78;5080270;28;19916;-63
2021/09/18 00:23:24;;;;;;;;;;;;;;;18.78;100.00;99025.84;5077807;28;19912;-63
2021/09/18 00:25:49;;;;;;;;;;;;;;;18.69;100.00;99024.63;5085363;28;19919;-63
2021/09/18 00:28:15;;;;;;;;;;;;;;;18.76;100.00;99028.50;5086385;28;19926;-64
2021/09/18 00:30:40;;;;;;;;;;;;;;;18.74;100.00;99033.00;5086473;28;19916;-64
2021/09/18 00:33:06;;;;;;;;;;;;;;;18.70;100.00;99035.91;5084631;28;20372;-63
2021/09/18 00:35:31;;;;;;;;;;;;;;;18.16;100.00;99041.94;5088144;28;19915;-61
2021/09/18 00:37:56;;;;;;;;;;;;;;;17.50;100.00;99045.94;5087585;28;20292;-61
2021/09/18 00:40:22;;;;;;;;;;;;;;;17.71;100.00;99036.00;5082141;28;20014;-62
2021/09/18 00:42:47;;;;;;;;;;;;;;;18.14;100.00;99034.22;5073897;28;20011;-62
2021/09/18 00:45:13;;;;;;;;;;;;;;;18.29;100.00;99028.97;5092729;28;19919;-62
2021/09/18 00:47:38;;;;;;;;;;;;;;;18.54;100.00;99023.88;5090186;28;20337;-62
2021/09/18 00:50:04;;;;;;;;;;;;;;;18.57;100.00;99030.66;5082659;28;19923;-63
2021/09/18 00:52:30;;;;;;;;;;;;;;;18.55;100.00;99029.91;5085615;28;19931;-63
2021/09/18 00:54:55;;;;;;;;;;;;;;;18.63;100.00;99025.03;5083053;28;19923;-63
2021/09/18 00:57:21;;;;;;;;;;;;;;;18.54;100.00;99030.84;5081437;28;19955;-63
2021/09/18 00:59:46;;;;;;;;;;;;;;;18.53;100.00;99026.56;5083756;28;19918;-63
2021/09/18 01:02:12;;;;;;;;;;;;;;;18.35;100.00;99032.03;5100079;28;19912;-63
2021/09/18 01:04:38;;;;;;;;;;;;;;;18.51;100.00;99033.66;5079522;28;19920;-63
2021/09/18 01:07:03;;;;;;;;;;;;;;;18.41;100.00;99035.19;5081990;28;20416;-62
2021/09/18 01:09:30;;;;;;;;;;;;;;;18.26;100.00;99030.00;5082537;28;20602;-63
2021/09/18 01:11:55;;;;;;;;;;;;;;;18.18;100.00;99033.09;5106171;28;19941;-63
2021/09/18 01:14:21;;;;;;;;;;;;;;;18.23;100.00;99032.81;5081850;28;19919;-64
2021/09/18 01:16:46;;;;;;;;;;;;;;;18.30;100.00;99031.47;5081730;28;20849;-63
2021/09/18 01:19:12;;;;;;;;;;;;;;;18.22;100.00;99027.69;5086505;28;19916;-61
2021/09/18 01:21:37;;;;;;;;;;;;;;;18.43;100.00;99028.94;5078965;28;19928;-62
2021/09/18 01:24:02;;;;;;;;;;;;;;;18.41;100.00;99027.38;5086897;28;20003;-63
2021/09/18 01:26:29;;;;;;;;;;;;;;;18.44;100.00;99027.16;5086318;28;20404;-63
2021/09/18 01:28:54;;;;;;;;;;;;;;;18.45;100.00;99026.22;5085636;28;19916;-63
2021/09/18 01:31:20;;;;;;;;;;;;;;;18.35;100.00;99028.59;5088995;28;20384;-63
2021/09/18 01:33:48;;;;;;;;;;;;;;;18.39;100.00;99027.47;5088569;28;19912;-63
2021/09/18 01:36:14;;;;;;;;;;;;;;;18.22;100.00;99033.72;5086859;28;20006;-63
2021/09/18 01:38:39;;;;;;;;;;;;;;;18.36;100.00;99032.88;5088847;28;20006;-63
2021/09/18 01:41:05;;;;;;;;;;;;;;;18.32;100.00;99037.44;5089518;28;19963;-64
2021/09/18 01:43:30;;;;;;;;;;;;;;;17.95;100.00;99031.94;5071480;28;19919;-63
2021/09/18 01:45:55;;;;;;;;;;;;;;;17.94;100.00;99030.25;5089689;28;20420;-64
2021/09/18 01:48:21;;;;;;;;;;;;;;;17.95;100.00;99029.31;5087530;28;20420;-63
2021/09/18 01:50:48;;;;;;;;;;;;;;;17.94;100.00;99024.19;5083618;28;20018;-63
2021/09/18 01:53:15;;;;;;;;;;;;;;;18.03;100.00;99033.22;5084910;28;19927;-63
2021/09/18 01:55:41;;;;;;;;;;;;;;;17.91;100.00;99029.59;5103195;28;19920;-63
2021/09/18 01:58:07;;;;;;;;;;;;;;;17.88;100.00;99022.81;5086069;28;20007;-62
2021/09/18 02:00:35;;;;;;;;;;;;;;;17.89;100.00;99021.88;5088161;28;19920;-63
2021/09/18 02:03:00;;;;;;;;;;;;;;;17.90;100.00;99023.56;5084553;28;19920;-63
2021/09/18 02:05:26;;;;;;;;;;;;;;;17.56;100.00;99022.97;5088949;28;19916;-63
2021/09/18 02:07:52;;;;;;;;;;;;;;;17.46;100.00;99021.03;5104205;28;19928;-63
2021/09/18 02:10:18;;;;;;;;;;;;;;;17.38;100.00;99021.50;5084661;28;19920;-63
2021/09/18 02:12:44;;;;;;;;;;;;;;;17.83;100.00;99021.41;5087816;28;19982;-61
2021/09/18 02:15:10;;;;;;;;;;;;;;;17.84;100.00;99016.13;5084649;28;20381;-63
2021/09/18 02:17:35;;;;;;;;;;;;;;;17.68;100.00;99023.16;5085439;28;19916;-65
2021/09/18 02:20:01;;;;;;;;;;;;;;;17.75;100.00;99019.25;5083948;28;20343;-65
2021/09/18 02:22:26;;;;;;;;;;;;;;;17.74;100.00;99021.03;5084018;28;20022;-63
2021/09/18 02:24:52;;;;;;;;;;;;;;;17.89;100.00;99021.03;5089753;28;19927;-63
2021/09/18 02:27:17;;;;;;;;;;;;;;;17.86;100.00;99016.88;5072792;28;20370;-63
2021/09/18 02:29:43;;;;;;;;;;;;;;;17.83;100.00;99024.00;5072881;28;19920;-63
2021/09/18 02:32:08;;;;;;;;;;;;;;;17.67;100.00;99021.47;5072807;28;19935;-63
2021/09/18 02:34:34;;;;;;;;;;;;;;;17.81;100.00;99024.09;5072732;28;19927;-63
2021/09/18 02:36:59;;;;;;;;;;;;;;;17.76;100.00;99010.50;5072635;28;20002;-63
2021/09/18 02:39:25;;;;;;;;;;;;;;;17.63;100.00;99005.22;5073693;28;20369;-63
2021/09/18 02:41:50;;;;;;;;;;;;;;;17.61;100.00;99014.03;5083750;28;20033;-63
2021/09/18 02:44:16;;;;;;;;;;;;;;;17.66;100.00;99012.00;5065637;28;19919;-63
2021/09/18 02:46:41;;;;;;;;;;;;;;;17.69;100.00;99011.81;5080792;28;19916;-63
2021/09/18 02:49:07;;;;;;;;;;;;;;;17.77;100.00;99014.78;5083670;28;19992;-63
2021/09/18 02:51:32;;;;;;;;;;;;;;;17.76;100.00;99013.09;5084046;28;20386;-63
2021/09/18 02:53:59;;;;;;;;;;;;;;;17.70;100.00;99011.72;5083688;28;19916;-63
2021/09/18 02:56:24;;;;;;;;;;;;;;;17.74;100.00;99017.56;5081987;28;19923;-63
2021/09/18 02:58:50;;;;;;;;;;;;;;;17.66;100.00;99017.22;5081041;28;19913;-63
2021/09/18 03:01:15;;;;;;;;;;;;;;;17.59;100.00;99013.31;5079741;28;20018;-63
2021/09/18 03:03:40;;;;;;;;;;;;;;;17.64;100.00;99019.06;5083335;28;19915;-63
2021/09/18 03:06:06;;;;;;;;;;;;;;;17.66;100.00;99019.81;5080791;28;19950;-63
2021/09/18 03:08:31;;;;;;;;;;;;;;;17.54;100.00;99018.81;5069495;28;19920;-62
2021/09/18 03:10:56;;;;;;;;;;;;;;;17.61;100.00;99019.25;5068711;28;19924;-63
2021/09/18 03:13:22;;;;;;;;;;;;;;;17.52;100.00;99018.88;5067543;28;19947;-63
2021/09/18 03:15:47;;;;;;;;;;;;;;;17.50;100.00;99018.13;5062518;28;19952;-64
2021/09/18 03:18:12;;;;;;;;;;;;;;;17.47;100.00;99015.72;5058645;28;19921;-63
2021/09/18 03:20:38;;;;;;;;;;;;;;;17.27;100.00;99010.88;5068267;28;19924;-63
2021/09/18 03:23:03;;;;;;;;;;;;;;;17.21;100.00;99012.06;5069810;28;19923;-63
2021/09/18 03:25:29;;;;;;;;;;;;;;;17.45;100.00;99011.53;5066057;28;20416;-64
2021/09/18 03:27:54;;;;;;;;;;;;;;;17.23;100.00;99014.56;5065993;28;19913;-63
2021/09/18 03:30:20;;;;;;;;;;;;;;;16.91;100.00;99012.94;5065316;28;19912;-63
2021/09/18 03:32:45;;;;;;;;;;;;;;;16.57;100.00;99013.97;5063692;28;20011;-63
2021/09/18 03:35:11;;;;;;;;;;;;;;;16.96;100.00;99010.06;5062925;28;19917;-63
2021/09/18 03:37:36;;;;;;;;;;;;;;;17.18;100.00;99014.84;5066084;28;20595;-62
2021/09/18 03:40:09;;;;;;;;;;;;;;;17.35;100.00;99011.25;5063508;28;19924;-63
2021/09/18 03:42:34;;;;;;;;;;;;;;;17.25;100.00;99010.13;5064518;28;19920;-63
2021/09/18 03:44:59;;;;;;;;;;;;;;;17.20;100.00;99012.16;5064389;28;20419;-63
2021/09/18 03:47:25;;;;;;;;;;;;;;;17.28;100.00;99009.94;5065006;28;19942;-63
2021/09/18 03:49:50;;;;;;;;;;;;;;;17.42;100.00;99012.53;5063575;28;19965;-63
2021/09/18 03:52:16;;;;;;;;;;;;;;;17.44;100.00;99013.28;5061363;28;20389;-63
2021/09/18 03:54:41;;;;;;;;;;;;;;;17.43;100.00;99011.63;5062220;28;19924;-63
2021/09/18 03:57:06;;;;;;;;;;;;;;;17.39;100.00;99007.53;5062747;28;19932;-63
2021/09/18 03:59:32;;;;;;;;;;;;;;;17.28;100.00;99009.94;5055455;28;19946;-63
2021/09/18 04:01:57;;;;;;;;;;;;;;;17.16;100.00;99006.28;5065737;28;19928;-63
2021/09/18 04:04:23;;;;;;;;;;;;;;;17.24;100.00;99003.22;5064617;28;19916;-63
2021/09/18 04:06:49;;;;;;;;;;;;;;;17.28;100.00;99009.94;5070424;28;19938;-63
2021/09/18 04:09:15;;;;;;;;;;;;;;;17.20;100.00;99004.38;5082439;28;19924;-63
2021/09/18 04:11:40;;;;;;;;;;;;;;;17.24;100.00;99008.44;5079533;28;19923;-62
2021/09/18 04:14:06;;;;;;;;;;;;;;;17.35;100.00;99012.06;5080412;28;19916;-63
2021/09/18 04:16:31;;;;;;;;;;;;;;;17.26;100.00;99011.78;5079831;28;19920;-63
2021/09/18 04:18:57;;;;;;;;;;;;;;;17.26;100.00;99015.22;5082010;28;20420;-63
2021/09/18 04:21:22;;;;;;;;;;;;;;;17.37;100.00;99024.16;5081901;28;19920;-63
2021/09/18 04:23:48;;;;;;;;;;;;;;;17.33;100.00;99029.56;5067650;28;20533;-64
2021/09/18 04:26:13;;;;;;;;;;;;;;;17.31;100.00;99027.97;5083213;28;19939;-63
2021/09/18 04:28:39;;;;;;;;;;;;;;;17.19;100.00;99026.94;5081737;28;19916;-64
2021/09/18 04:31:04;;;;;;;;;;;;;;;17.20;100.00;99022.59;5079221;28;20258;-63
2021/09/18 04:33:30;;;;;;;;;;;;;;;17.28;100.00;99021.19;5079431;28;20317;-62
2021/09/18 04:35:55;;;;;;;;;;;;;;;16.96;100.00;99015.25;5078489;28;20015;-62
2021/09/18 04:38:21;;;;;;;;;;;;;;;16.60;100.00;99021.59;5078559;28;20833;-63
2021/09/18 04:40:46;;;;;;;;;;;;;;;16.53;100.00;99022.88;5078601;28;19924;-63
2021/09/18 04:43:11;;;;;;;;;;;;;;;16.56;100.00;99016.66;5081843;28;19924;-61
2021/09/18 04:45:37;;;;;;;;;;;;;;;16.89;100.00;99019.97;5082148;28;20401;-61
2021/09/18 04:48:02;;;;;;;;;;;;;;;17.17;100.00;99020.13;5081317;28;20333;-61
2021/09/18 04:50:28;;;;;;;;;;;;;;;17.34;100.00;99023.41;5081966;28;19993;-61
2021/09/18 04:52:53;;;;;;;;;;;;;;;17.31;100.00;99026.22;5081836;28;19924;-61
2021/09/18 04:55:19;;;;;;;;;;;;;;;17.32;100.00;99027.06;5083274;28;19920;-62
2021/09/18 04:57:44;;;;;;;;;;;;;;;17.29;100.00;99022.03;5084109;28;19955;-61
2021/09/18 05:00:10;;;;;;;;;;;;;;;17.35;100.00;99026.84;5077053;28;20448;-61
2021/09/18 05:02:35;;;;;;;;;;;;;;;17.35;100.00;99032.06;5080653;28;19946;-62
2021/09/18 05:05:01;;;;;;;;;;;;;;;17.41;100.00;99034.31;5082329;28;20431;-61
2021/09/18 05:07:26;;;;;;;;;;;;;;;17.22;100.00;99036.31;5079915;28;19920;-61
2021/09/18 05:09:51;;;;;;;;;;;;;;;17.39;100.00;99043.97;5086319;28;20393;-63
2021/09/18 05:12:17;;;;;;;;;;;;;;;17.27;100.00;99045.53;5083857;28;19923;-65
2021/09/18 05:14:42;;;;;;;;;;;;;;;16.89;100.00;99058.16;5084274;28;19927;-65
2021/09/18 05:17:07;;;;;;;;;;;;;;;17.51;100.00;99058.03;5084815;28;19920;-64
2021/09/18 05:19:33;;;;;;;;;;;;;;;17.03;100.00;99060.81;5086114;28;19916;-64
2021/09/18 05:21:58;;;;;;;;;;;;;;;16.69;100.00;99062.72;5082614;28;19916;-64
2021/09/18 05:24:25;;;;;;;;;;;;;;;16.75;100.00;99073.69;5083655;28;19925;-63
2021/09/18 05:26:50;;;;;;;;;;;;;;;17.33;100.00;99067.75;5088660;28;19957;-64
2021/09/18 05:29:16;;;;;;;;;;;;;;;16.63;100.00;99068.25;5081923;28;19985;-63
2021/09/18 05:31:41;;;;;;;;;;;;;;;16.90;100.00;99072.84;5082402;28;19916;-63
2021/09/18 05:34:07;;;;;;;;;;;;;;;17.32;100.00;99068.69;5085761;28;20472;-63
2021/09/18 05:36:32;;;;;;;;;;;;;;;17.28;100.00;99062.00;5083884;28;19920;-63
2021/09/18 05:38:57;;;;;;;;;;;;;;;17.01;100.00;99073.06;5084326;28;20267;-64
2021/09/18 05:41:23;;;;;;;;;;;;;;;17.09;100.00;99072.63;5084690;28;20051;-63
2021/09/18 05:43:48;;;;;;;;;;;;;;;16.89;100.00;99076.38;5085725;28;19916;-64
2021/09/18 05:46:14;;;;;;;;;;;;;;;16.96;100.00;99076.88;5077198;28;20009;-63
2021/09/18 05:48:39;;;;;;;;;;;;;;;17.03;100.00;99073.81;5091941;28;19916;-63
2021/09/18 05:51:04;;;;;;;;;;;;;;;17.02;100.00;99079.97;5084235;28;20007;-62
2021/09/18 05:53:30;;;;;;;;;;;;;;;17.28;100.00;99078.44;5082084;28;19915;-63
2021/09/18 05:55:55;;;;;;;;;;;;;;;17.41;100.00;99069.94;5093269;28;20399;-62
2021/09/18 05:58:21;;;;;;;;;;;;;;;17.62;100.00;99075.63;5091677;28;20007;-63
2021/09/18 06:00:46;;;;;;;;;;;;;;;17.78;100.00;99076.38;5092804;28;20330;-63
2021/09/18 06:03:11;;;;;;;;;;;;;;;16.67;100.00;99084.50;5093579;28;19920;-63
2021/09/18 06:05:37;;;;;;;;;;;;;;;16.83;100.00;99097.50;5082983;28;19966;-63
2021/09/18 06:08:02;;;;;;;;;;;;;;;17.52;100.00;99093.56;5089668;28;20015;-63
2021/09/18 06:10:28;;;;;;;;;;;;;;;17.89;100.00;99092.22;5073215;28;20102;-63
2021/09/18 06:12:53;;;;;;;;;;;;;;;17.52;100.00;99090.97;5059818;28;20007;-62
2021/09/18 06:15:18;;;;;;;;;;;;;;;17.42;100.00;99089.81;5079419;28;19963;-62
2021/09/18 06:17:44;;;;;;;;;;;;;;;17.88;100.00;99090.56;5080643;28;19912;-62
2021/09/18 06:20:10;;;;;;;;;;;;;;;17.76;100.00;99093.84;5079858;28;20015;-63
2021/09/18 06:22:35;;;;;;;;;;;;;;;18.21;100.00;99099.84;5064189;28;19959;-63
2021/09/18 06:25:01;;;;;;;;;;;;;;;18.38;100.00;99099.63;5062536;28;20362;-63
2021/09/18 06:27:26;;;;;;;;;;;;;;;18.36;100.00;99098.88;5062080;28;20315;-63
2021/09/18 06:29:51;;;;;;;;;;;;;;;18.39;100.00;99109.13;5063529;28;19984;-63
2021/09/18 06:32:17;;;;;;;;;;;;;;;17.71;100.00;99103.72;5064032;28;19913;-63
2021/09/18 06:34:42;;;;;;;;;;;;;;;18.31;100.00;99108.75;5065785;28;19917;-63
2021/09/18 06:37:08;;;;;;;;;;;;;;;18.34;100.00;99100.75;5064039;28;20271;-63
2021/09/18 06:39:33;;;;;;;;;;;;;;;17.93;100.00;99106.75;5061099;28;19966;-63
2021/09/18 06:41:59;;;;;;;;;;;;;;;17.89;100.00;99109.63;5063191;28;19967;-63
2021/09/18 06:44:24;;;;;;;;;;;;;;;18.35;100.00;99102.41;5078601;28;19917;-63
2021/09/18 06:46:50;;;;;;;;;;;;;;;18.21;100.00;99105.06;5063988;28;20039;-63
2021/09/18 06:49:15;;;;;;;;;;;;;;;18.53;100.00;99102.22;5063405;28;20289;-63
2021/09/18 06:51:41;;;;;;;;;;;;;;;18.18;100.00;99103.47;5079223;28;20007;-62
2021/09/18 06:54:06;;;;;;;;;;;;;;;18.01;100.00;99110.66;5063891;28;19920;-63
2021/09/18 06:56:32;;;;;;;;;;;;;;;18.65;100.00;99103.19;5064571;28;21015;-63
2021/09/18 06:58:57;;;;;;;;;;;;;;;17.83;100.00;99110.81;5083606;28;19951;-63
2021/09/18 07:01:23;;;;;;;;;;;;;;;17.51;100.00;99117.91;5057578;28;19970;-63
2021/09/18 07:03:49;;;;;;;;;;;;;;;17.96;100.00;99124.78;5052216;28;19916;-64
2021/09/18 07:06:14;;;;;;;;;;;;;;;18.54;100.00;99116.91;5055767;28;20279;-63
2021/09/18 07:08:39;;;;;;;;;;;;;;;17.63;100.00;99118.94;5077749;28;20025;-64
2021/09/18 07:11:05;;;;;;;;;;;;;;;18.34;100.00;99116.41;5071690;28;19912;-64
2021/09/18 07:13:30;;;;;;;;;;;;;;;18.25;100.00;99116.13;5069490;28;19965;-64
2021/09/18 07:15:56;;;;;;;;;;;;;;;17.63;100.00;99127.63;5082511;28;20469;-64
2021/09/18 07:18:22;;;;;;;;;;;;;;;17.53;100.00;99129.91;5082493;28;19916;-62
2021/09/18 07:20:47;;;;;;;;;;;;;;;18.28;100.00;99127.19;5080965;28;19923;-62
2021/09/18 07:23:12;;;;;;;;;;;;;;;18.98;100.00;99115.91;5084299;28;19912;-64
2021/09/18 07:25:38;;;;;;;;;;;;;;;19.05;100.00;99116.34;5081831;28;19920;-64
2021/09/18 07:28:03;;;;;;;;;;;;;;;18.99;100.00;99117.56;5078474;28;19920;-64
2021/09/18 07:30:29;;;;;;;;;;;;;;;18.41;100.00;99110.81;5084118;28;20001;-64
2021/09/18 07:32:54;;;;;;;;;;;;;;;19.10;100.00;99104.63;5081991;28;19916;-62
2021/09/18 07:35:19;;;;;;;;;;;;;;;19.27;100.00;99118.34;5081870;28;20019;-62
2021/09/18 07:37:45;;;;;;;;;;;;;;;19.13;100.00;99114.88;5082173;28;19994;-63
2021/09/18 07:40:11;;;;;;;;;;;;;;;18.99;100.00;99107.13;5077258;28;19916;-62
2021/09/18 07:42:36;;;;;;;;;;;;;;;18.68;100.00;99108.19;5069761;28;19912;-62
2021/09/18 07:45:03;;;;;;;;;;;;;;;19.31;100.00;99117.22;5080467;28;20483;-62
2021/09/18 07:47:28;;;;;;;;;;;;;;;19.08;100.00;99116.13;5080413;28;19920;-63
2021/09/18 07:49:54;;;;;;;;;;;;;;;19.84;100.00;99120.63;5079882;28;19916;-64
2021/09/18 07:52:19;;;;;;;;;;;;;;;19.26;100.00;99121.91;5079088;28;19919;-63
2021/09/18 07:54:45;;;;;;;;;;;;;;;19.21;100.00;99117.81;5079262;28;19974;-63
2021/09/18 07:57:10;;;;;;;;;;;;;;;19.01;100.00;99126.13;5091435;28;19912;-64
2021/09/18 07:59:36;;;;;;;;;;;;;;;19.36;100.00;99126.44;5090748;28;19916;-64
2021/09/18 08:02:01;;;;;;;;;;;;;;;19.32;100.00;99129.34;5089922;28;19970;-64
2021/09/18 08:04:28;;;;;;;;;;;;;;;19.60;100.00;99131.78;5088761;28;20002;-64
2021/09/18 08:06:54;;;;;;;;;;;;;;;19.63;100.00;99138.56;5096530;28;20424;-63
2021/09/18 08:09:19;;;;;;;;;;;;;;;19.13;100.00;99142.75;5085395;28;19999;-64
2021/09/18 08:11:45;;;;;;;;;;;;;;;19.58;100.00;99144.09;5084658;28;19961;-63
2021/09/18 08:14:10;;;;;;;;;;;;;;;19.08;100.00;99148.28;5083915;28;19919;-64
2021/09/18 08:16:35;;;;;;;;;;;;;;;19.80;100.00;99143.53;5084541;28;19920;-63
2021/09/18 08:19:01;;;;;;;;;;;;;;;19.76;100.00;99136.03;5088986;28;19920;-65
2021/09/18 08:21:27;;;;;;;;;;;;;;;19.86;100.00;99144.88;5084957;28;20113;-64
2021/09/18 08:23:52;;;;;;;;;;;;;;;18.93;100.00;99150.13;5083161;28;19931;-65
2021/09/18 08:26:18;;;;;;;;;;;;;;;19.49;100.00;99147.34;5086313;28;19919;-64
2021/09/18 08:28:43;;;;;;;;;;;;;;;20.36;100.00;99142.34;5085640;28;20391;-63
2021/09/18 08:31:08;;;;;;;;;;;;;;;19.19;100.00;99143.19;5084882;28;19937;-63
2021/09/18 08:33:35;;;;;;;;;;;;;;;19.17;100.00;99152.06;5083620;28;20424;-63
2021/09/18 08:36:00;;;;;;;;;;;;;;;20.98;100.00;99138.81;5082931;28;19951;-63
2021/09/18 08:38:26;;;;;;;;;;;;;;;19.37;100.00;99150.78;5083817;28;19954;-63
2021/09/18 08:40:54;;;;;;;;;;;;;;;19.49;100.00;99144.72;5084013;28;20300;-63
2021/09/18 08:43:19;;;;;;;;;;;;;;;20.60;100.00;99151.13;5085607;28;20011;-64
2021/09/18 08:45:45;;;;;;;;;;;;;;;19.15;100.00;99156.56;5081797;28;20006;-65
2021/09/18 08:48:11;;;;;;;;;;;;;;;19.49;100.00;99155.16;5081940;28;19916;-64
2021/09/18 08:50:37;;;;;;;;;;;;;;;20.10;100.00;99163.31;5065927;28;19922;-64
2021/09/18 08:53:02;;;;;;;;;;;;;;;20.09;100.00;99164.22;5082685;28;20508;-64
2021/09/18 08:55:27;;;;;;;;;;;;;;;19.76;100.00;99157.75;5081851;28;20266;-66
2021/09/18 08:57:53;;;;;;;;;;;;;;;19.07;100.00;99167.50;5100108;28;20686;-64
2021/09/18 09:00:34;;;;;;;;;;;;;;;19.93;100.00;99167.06;5082009;28;19920;-64
2021/09/18 09:03:01;;;;;;;;;;;;;;;20.81;100.00;99156.59;5084269;28;20002;-64
2021/09/18 09:05:27;;;;;;;;;;;;;;;20.66;100.00;99155.06;5106986;28;19990;-64
2021/09/18 09:08:04;;;;;;;;;;;;;;;19.38;100.00;99160.28;5083719;28;19932;-64
2021/09/18 09:10:30;;;;;;;;;;;;;;;19.62;100.00;99163.03;5059596;28;19917;-64
2021/09/18 09:12:56;;;;;;;;;;;;;;;20.04;100.00;99164.53;5058795;28;20756;-64
2021/09/18 09:15:21;;;;;;;;;;;;;;;21.08;100.00;99159.00;5043361;28;19947;-64
2021/09/18 09:17:52;;;;;;;;;;;;;;;21.10;100.00;99156.28;5057835;28;19916;-63
2021/09/18 09:20:24;;;;;;;;;;;;;;;20.51;100.00;99161.38;5059932;28;20584;-62
2021/09/18 09:22:50;;;;;;;;;;;;;;;21.04;100.00;99152.31;5053339;28;20919;-62
2021/09/18 09:25:23;;;;;;;;;;;;;;;21.32;100.00;99152.91;5057509;28;19927;-64
2021/09/18 09:27:48;;;;;;;;;;;;;;;19.84;100.00;99162.44;5062036;28;19975;-64
2021/09/18 09:30:16;;;;;;;;;;;;;;;20.51;100.00;99166.59;5057089;28;20362;-64
2021/09/18 09:32:43;;;;;;;;;;;;;;;20.87;100.00;99158.78;5044968;28;19916;-64
2021/09/18 09:35:10;;;;;;;;;;;;;;;20.65;100.00;99169.09;5058354;28;19924;-65
2021/09/18 09:37:36;;;;;;;;;;;;;;;20.56;100.00;99173.19;5062483;28;20377;-65
2021/09/18 09:40:02;;;;;;;;;;;;;;;20.18;100.00;99165.38;5057823;28;19917;-65
2021/09/18 09:42:31;;;;;;;;;;;;;;;21.20;100.00;99162.50;5058807;28;20564;-64
2021/09/18 09:45:10;;;;;;;;;;;;;;;20.81;100.00;99167.06;5078180;28;19921;-62
2021/09/18 09:47:36;;;;;;;;;;;;;;;21.70;100.00;99164.97;5062444;28;19995;-63
2021/09/18 09:50:03;;;;;;;;;;;;;;;21.95;100.00;99163.94;5060274;28;20019;-63
2021/09/18 09:52:29;;;;;;;;;;;;;;;22.76;100.00;99162.00;5057629;28;19927;-64
2021/09/18 09:54:58;;;;;;;;;;;;;;;23.12;100.00;99162.66;5058884;28;19920;-63
2021/09/18 09:57:23;;;;;;;;;;;;;;;21.94;100.00;99167.53;5060561;28;19924;-64
2021/09/18 09:59:49;;;;;;;;;;;;;;;20.67;100.00;99183.75;5058039;28;19924;-64
2021/09/18 10:02:15;;;;;;;;;;;;;;;19.88;100.00;99169.16;5049906;28;19916;-64
2021/09/18 10:04:40;;;;;;;;;;;;;;;20.53;100.00;99175.19;5061492;28;20023;-63
2021/09/18 10:07:08;;;;;;;;;;;;;;;22.10;100.00;99164.53;5061462;28;20015;-64
2021/09/18 10:09:34;;;;;;;;;;;;;;;22.77;100.00;99171.56;5082188;28;19927;-64
2021/09/18 10:12:03;;;;;;;;;;;;;;;23.65;100.00;99160.03;5046091;28;19916;-65
2021/09/18 10:14:31;;;;;;;;;;;;;;;24.77;100.00;99168.03;5046578;28;19916;-63
2021/09/18 10:16:57;;;;;;;;;;;;;;;22.26;100.00;99164.19;5066414;28;20399;-63
2021/09/18 10:24:47;;;;;;;;;;;;;;;24.72;100.00;99157.06;5063298;28;19928;-64
2021/09/18 10:27:20;;;;;;;;;;;;;;;23.73;100.00;99160.22;5060635;28;20876;-63
2021/09/18 10:29:46;;;;;;;;;;;;;;;24.65;100.00;99159.41;5061567;28;20015;-64
2021/09/18 10:32:12;;;;;;;;;;;;;;;23.46;100.00;99159.88;5062536;28;20313;-64
2021/09/18 10:34:37;;;;;;;;;;;;;;;23.83;100.00;99156.84;5060796;28;19931;-64
2021/09/18 10:37:03;;;;;;;;;;;;;;;23.38;100.00;99150.84;5062812;28;20011;-64
2021/09/18 10:39:28;;;;;;;;;;;;;;;22.76;100.00;99156.75;5047568;28;19920;-63
2021/09/18 10:41:56;;;;;;;;;;;;;;;22.89;100.00;99149.56;5063697;28;20585;-65
2021/09/18 10:44:22;;;;;;;;;;;;;;;24.92;100.00;99142.97;5062075;28;20290;-65
2021/09/18 10:46:47;;;;;;;;;;;;;;;24.81;100.00;99149.22;5058959;28;19960;-65
2021/09/18 10:49:24;;;;;;;;;;;;;;;22.59;100.00;99150.22;5061067;28;19955;-63
2021/09/18 10:51:50;;;;;;;;;;;;;;;22.89;100.00;99151.38;5062860;28;19920;-65
2021/09/18 10:54:15;;;;;;;;;;;;;;;24.38;100.00;99152.09;5042478;28;20422;-65
2021/09/18 10:57:01;;;;;;;;;;;;;;;25.63;94.77;99144.50;5058632;28;19913;-65
2021/09/18 10:59:56;;;;;;;;;;;;;;;23.98;100.00;99150.28;5060267;28;19916;-64
2021/09/18 11:02:31;;;;;;;;;;;;;;;21.68;100.00;99151.13;5037400;28;19974;-64
2021/09/18 11:04:56;;;;;;;;;;;;;;;23.05;100.00;99145.72;5052843;28;19963;-65
2021/09/18 11:07:40;;;;;;;;;;;;;;;25.10;100.00;99137.03;5075337;28;20097;-63
2021/09/18 11:10:10;;;;;;;;;;;;;;;23.02;100.00;99136.31;5094282;28;19992;-63
2021/09/18 11:12:36;;;;;;;;;;;;;;;23.30;100.00;99140.13;5096177;28;20042;-65
2021/09/18 11:15:02;;;;;;;;;;;;;;;24.94;100.00;99138.41;5078122;28;20816;-65
2021/09/18 11:17:31;;;;;;;;;;;;;;;26.12;100.00;99142.59;5103841;28;20397;-65
2021/09/18 11:19:58;;;;;;;;;;;;;;;25.34;94.71;99133.97;5080657;28;19916;-65
2021/09/18 11:22:23;;;;;;;;;;;;;;;26.03;100.00;99135.53;5077572;28;19919;-66
2021/09/18 11:24:50;;;;;;;;;;;;;;;23.54;100.00;99139.91;5077883;28;19912;-63
2021/09/18 11:27:34;;;;;;;;;;;;;;;22.85;100.00;99144.69;5078996;28;19916;-64
2021/09/18 11:29:59;;;;;;;;;;;;;;;22.02;100.00;99143.31;5081784;28;19926;-63
2021/09/18 11:32:26;;;;;;;;;;;;;;;23.01;100.00;99141.69;5099544;28;19923;-64
2021/09/18 11:34:53;;;;;;;;;;;;;;;25.91;100.00;99131.41;5098605;28;19920;-63
2021/09/18 11:37:26;;;;;;;;;;;;;;;23.64;91.88;99137.31;5091361;28;20011;-66
2021/09/18 11:39:54;;;;;;;;;;;;;;;24.81;97.11;99132.56;5100509;28;19927;-65
2021/09/18 11:42:22;;;;;;;;;;;;;;;26.19;100.00;99132.28;5096174;28;19924;-66
2021/09/18 11:44:49;;;;;;;;;;;;;;;24.63;84.56;99140.28;5096385;28;19916;-64
2021/09/18 11:47:20;;;;;;;;;;;;;;;24.39;89.04;99132.72;5098994;28;20526;-66
2021/09/18 11:49:45;;;;;;;;;;;;;;;25.53;100.00;99133.16;5104548;28;19912;-64
2021/09/18 11:52:11;;;;;;;;;;;;;;;24.98;86.41;99128.41;5097779;28;19972;-65
2021/09/18 11:54:36;;;;;;;;;;;;;;;25.86;98.66;99124.75;5101998;28;19912;-65
2021/09/18 11:57:12;;;;;;;;;;;;;;;26.90;80.04;99131.63;5101950;28;19938;-64
2021/09/18 11:59:37;;;;;;;;;;;;;;;24.86;99.21;99130.38;5082345;28;20517;-67
2021/09/18 12:02:02;;;;;;;;;;;;;;;24.96;89.45;99128.56;5100522;28;19927;-64
2021/09/18 12:04:41;;;;;;;;;;;;;;;27.32;90.39;99123.06;5097190;28;19912;-65
2021/09/18 12:07:07;;;;;;;;;;;;;;;28.03;89.77;99126.53;5104030;28;19965;-65
2021/09/18 12:09:33;;;;;;;;;;;;;;;26.64;81.81;99129.72;5106879;28;20339;-67
2021/09/18 12:11:58;;;;;;;;;;;;;;;26.57;79.70;99127.78;5079197;28;19970;-65
2021/09/18 12:14:29;;;;;;;;;;;;;;;25.29;89.95;99121.22;5094655;28;20218;-64
2021/09/18 12:16:55;;;;;;;;;;;;;;;24.11;100.00;99129.84;5097513;28;19916;-64
2021/09/18 12:19:20;;;;;;;;;;;;;;;23.22;88.68;99134.69;5081806;28;19973;-65
2021/09/18 12:21:45;;;;;;;;;;;;;;;23.34;93.84;99130.22;5100227;28;19915;-65
2021/09/18 12:24:11;;;;;;;;;;;;;;;23.97;89.92;99127.56;5101510;28;19950;-64
2021/09/18 12:26:40;;;;;;;;;;;;;;;26.61;93.17;99124.69;5100603;28;19922;-66
2021/09/18 12:29:07;;;;;;;;;;;;;;;23.69;86.25;99123.78;5099704;28;20308;-64
2021/09/18 12:31:32;;;;;;;;;;;;;;;26.72;89.79;99125.47;5079471;28;19920;-64
2021/09/18 12:34:05;;;;;;;;;;;;;;;26.95;73.74;99126.69;5075061;28;19922;-64
2021/09/18 12:36:31;;;;;;;;;;;;;;;27.66;97.57;99123.16;5098419;28;19916;-65
2021/09/18 12:38:56;;;;;;;;;;;;;;;27.20;77.50;99121.63;5099257;28;19923;-63